Hlavní strana
METAR-TAF:

METAR-TAF

Letiště :

Letiště Cabinda

Cabinda, Angola

zeměpisná šířka: 5-35-50S, zeměpisná délka: 12-11-17E, výška: 20 m

Aktuální stav počasí

Zpráva byla vytvořena před 1 hodinou a 17 minutami, v 17:00 UTC
Západní vítr 5 kt
Teplota 25°C
Vlhkost vzduchu 79%
Tlak 1014 hPa
Viditelnost: 9000 m
Polojasno ve výšce 2500 ft

METAR: FNCA 201700Z 26005KT 9000 SCT025 25/21 Q1014

Čas: 19:17 (18:17 UTC)

Předpověď počasí

Zpráva byla vytvořena před 7 hodinami a 17 minutami, v 11:00 UTC
Předpověď platná od 20 v 12 UTC do 20 v 24 UTC
Východní vítr 10 kt
Viditelnost 10 km a více
Skoro jasno ve výšce 1600 ft
Polojasno ve výšce 2000 ft
Změna
od 20 v 18 UTC do 20 v 20 UTC
Viditelnost: 7000 m
Oblačno až skoro zataženo ve výšce 2000 ft

TAF: FNCA 201100Z 2012/2024 10010KT 9999 FEW016 SCT020 BECMG 2018/2020 7000 BKN020

Stav a předpovědi počasí z více než 4 000 letišť (zprávy METAR a TAF).

Červené a žluté tečky na mapě představují dostupné meteorologické stanice.

Když kurzor umístíte na tečku, zobrazí se název stanice.

Pak kliknutím zobrazíte stav a předpověď počasí.

Chcete-li změnit mapu, kliknutím na zelené tlačítko se znaménkem +mapu přiblížíte, kliknutím na zelené tlačítko se znaménkem – mapu oddálíte a kliknutím na zelené šipky přejdete na sousední mapy.


METAR-TAF: